createdAt,value
2023-01-30T00:04:37.541Z,12.50
2023-01-30T00:09:39.335Z,15.33
2023-01-30T00:14:41.132Z,13.53
2023-01-30T00:19:42.923Z,13.13
2023-01-30T00:24:44.873Z,11.93
2023-01-30T00:29:57.718Z,11.90
2023-01-30T00:35:07.075Z,13.60
2023-01-30T00:40:10.046Z,14.53
2023-01-30T00:45:31.805Z,14.50
2023-01-30T00:50:42.732Z,15.67
2023-01-30T00:55:47.014Z,15.00
2023-01-30T01:00:51.058Z,13.10
2023-01-30T01:05:52.968Z,16.30
2023-01-30T01:10:54.797Z,13.50
2023-01-30T01:15:56.687Z,14.13
2023-01-30T01:20:58.786Z,16.40
2023-01-30T01:26:02.750Z,16.47
2023-01-30T01:31:12.260Z,15.30
2023-01-30T01:36:29.400Z,15.27
2023-01-30T01:41:35.916Z,14.80
2023-01-30T01:46:48.788Z,16.03
2023-01-30T01:51:53.627Z,16.07
2023-01-30T01:56:56.927Z,16.37
2023-01-30T02:02:03.718Z,16.13
2023-01-30T02:07:06.089Z,16.63
2023-01-30T02:12:11.096Z,15.20
2023-01-30T02:17:13.009Z,16.53
2023-01-30T02:22:22.814Z,15.87
2023-01-30T02:27:42.885Z,14.27
2023-01-30T02:32:56.755Z,13.50
2023-01-30T02:38:22.824Z,14.43
2023-01-30T02:44:02.973Z,16.00
2023-01-30T02:49:31.517Z,13.00
2023-01-30T02:54:33.694Z,11.80
2023-01-30T02:59:43.333Z,13.17
2023-01-30T03:04:45.135Z,14.20
2023-01-30T03:10:08.277Z,12.93
2023-01-30T03:15:23.971Z,12.17
2023-01-30T03:20:26.168Z,13.17
2023-01-30T03:25:28.087Z,14.13
2023-01-30T03:30:30.186Z,13.87
2023-01-30T03:35:42.550Z,13.80
2023-01-30T03:40:45.096Z,13.47
2023-01-30T03:45:47.039Z,14.13
2023-01-30T03:50:49.075Z,12.00
2023-01-30T03:55:51.779Z,12.17
2023-01-30T04:00:59.810Z,13.97
2023-01-30T04:06:01.705Z,14.00
2023-01-30T04:11:04.362Z,13.00
2023-01-30T04:16:25.695Z,14.17
2023-01-30T04:21:59.348Z,10.80
2023-01-30T04:27:01.308Z,12.17
2023-01-30T04:32:04.153Z,12.73
2023-01-30T04:37:09.641Z,10.23
2023-01-30T04:42:12.200Z,14.00
2023-01-30T04:47:24.822Z,12.00
2023-01-30T04:52:26.747Z,10.83
2023-01-30T04:57:28.630Z,13.17
2023-01-30T05:02:31.702Z,11.00
2023-01-30T05:07:33.498Z,12.07
2023-01-30T05:12:35.366Z,12.63
2023-01-30T05:17:37.246Z,10.03
2023-01-30T05:22:39.170Z,11.00
2023-01-30T05:27:41.165Z,12.17
2023-01-30T05:32:42.977Z,10.83
2023-01-30T05:37:44.835Z,11.00
2023-01-30T05:42:46.670Z,10.73
2023-01-30T05:47:56.294Z,11.83
2023-01-30T05:52:58.246Z,11.03
2023-01-30T05:58:00.134Z,11.70
2023-01-30T06:03:02.019Z,10.73
2023-01-30T06:08:03.896Z,11.37
2023-01-30T06:13:05.815Z,10.23
2023-01-30T06:18:07.661Z,11.33
2023-01-30T06:23:09.451Z,8.93
2023-01-30T06:28:11.696Z,10.27
2023-01-30T06:33:14.324Z,10.90
2023-01-30T06:38:16.981Z,10.83
2023-01-30T06:43:18.875Z,10.05
2023-01-30T06:48:20.682Z,9.30
2023-01-30T06:53:25.398Z,10.10
2023-01-30T06:58:27.642Z,9.00
2023-01-30T07:03:29.494Z,9.30
2023-01-30T07:08:31.317Z,7.73
2023-01-30T07:13:33.124Z,8.00
2023-01-30T07:18:34.943Z,7.80
2023-01-30T07:23:36.769Z,7.60
2023-01-30T07:28:38.561Z,6.47
2023-01-30T07:33:40.387Z,6.47
2023-01-30T07:38:42.255Z,5.83
2023-01-30T07:43:44.033Z,5.97
2023-01-30T07:48:46.158Z,6.77
2023-01-30T07:53:51.170Z,6.43
2023-01-30T07:58:55.597Z,5.57
2023-01-30T08:03:57.562Z,4.37
2023-01-30T08:08:59.378Z,5.93
2023-01-30T08:14:01.391Z,6.07
2023-01-30T08:19:04.913Z,6.07
2023-01-30T08:24:07.295Z,5.65
2023-01-30T08:29:09.119Z,5.13
2023-01-30T08:34:11.024Z,6.60
2023-01-30T08:39:13.365Z,5.80
2023-01-30T08:44:15.153Z,5.33
2023-01-30T08:49:17.015Z,5.70
2023-01-30T08:54:18.814Z,5.43
2023-01-30T08:59:20.729Z,5.18
2023-01-30T09:04:25.023Z,5.20
2023-01-30T09:09:29.314Z,5.28
2023-01-30T09:14:31.121Z,4.70
2023-01-30T09:19:33.021Z,5.50
2023-01-30T09:24:34.895Z,5.38
2023-01-30T09:29:36.667Z,4.90
2023-01-30T09:34:38.479Z,4.90
2023-01-30T09:39:40.313Z,5.40
2023-01-30T09:45:00.665Z,4.70
2023-01-30T09:50:21.325Z,4.78
2023-01-30T09:55:26.823Z,5.55
2023-01-30T10:00:42.356Z,4.57
2023-01-30T10:05:46.290Z,4.63
2023-01-30T10:11:08.146Z,4.38
2023-01-30T10:16:33.797Z,5.03
2023-01-30T10:21:59.451Z,4.43
2023-01-30T10:27:04.608Z,4.93
2023-01-30T10:32:26.210Z,5.65
2023-01-30T10:37:33.169Z,5.10
2023-01-30T10:43:03.168Z,4.97
2023-01-30T10:48:07.851Z,4.90
2023-01-30T10:53:20.112Z,4.35
2023-01-30T10:58:43.914Z,4.50
2023-01-30T11:04:02.631Z,4.47
2023-01-30T11:09:04.810Z,4.43
2023-01-30T11:14:09.247Z,5.70
2023-01-30T11:19:21.196Z,5.07
2023-01-30T11:24:30.483Z,5.10
2023-01-30T11:29:33.652Z,5.53
2023-01-30T11:34:35.479Z,6.63
2023-01-30T11:39:37.294Z,5.80
2023-01-30T11:44:42.154Z,7.45
2023-01-30T11:50:00.694Z,6.10
2023-01-30T11:55:10.164Z,6.30
2023-01-30T12:00:42.780Z,5.97
2023-01-30T12:05:47.063Z,5.70
2023-01-30T12:10:54.069Z,6.03
2023-01-30T12:16:38.144Z,6.07
2023-01-30T12:22:11.581Z,5.80
2023-01-30T12:27:29.946Z,5.72
2023-01-30T12:32:34.828Z,5.28
2023-01-30T12:37:58.012Z,4.88
2023-01-30T12:43:33.463Z,4.40
2023-01-30T12:49:07.942Z,4.43
2023-01-30T12:54:32.108Z,4.93
2023-01-30T12:59:50.744Z,5.28
2023-01-30T13:05:08.154Z,6.13
2023-01-30T13:10:39.121Z,4.45
2023-01-30T13:16:04.063Z,4.18
2023-01-30T13:21:46.549Z,4.82
2023-01-30T13:26:51.036Z,4.23
2023-01-30T13:31:57.370Z,4.90
2023-01-30T13:37:15.773Z,4.70
2023-01-30T13:43:05.020Z,4.75
2023-01-30T13:48:26.333Z,5.25
2023-01-30T13:53:48.763Z,4.70
2023-01-30T13:58:59.195Z,5.03
2023-01-30T14:04:41.889Z,4.38
2023-01-30T14:09:49.382Z,4.72
2023-01-30T14:15:20.431Z,5.03
2023-01-30T14:20:23.335Z,4.82
2023-01-30T14:25:28.162Z,4.82
2023-01-30T14:30:45.269Z,4.20
2023-01-30T14:36:02.409Z,4.22
2023-01-30T14:41:04.225Z,3.90
2023-01-30T14:46:18.133Z,3.50
2023-01-30T14:51:34.735Z,3.67
2023-01-30T14:57:06.091Z,3.85
2023-01-30T15:02:14.231Z,3.65
2023-01-30T15:07:26.383Z,4.28
2023-01-30T15:12:40.335Z,4.35
2023-01-30T15:18:09.051Z,4.55
2023-01-30T15:23:23.260Z,3.90
2023-01-30T15:28:35.081Z,4.38
2023-01-30T15:33:48.159Z,3.70
2023-01-30T15:39:19.624Z,3.45
2023-01-30T15:44:32.296Z,3.85
2023-01-30T15:49:59.955Z,4.18
2023-01-30T15:55:02.506Z,4.45
2023-01-30T16:00:17.353Z,4.15
2023-01-30T16:05:25.790Z,3.85
2023-01-30T16:10:30.650Z,3.60
2023-01-30T16:15:41.917Z,4.15
2023-01-30T16:21:00.775Z,4.55
2023-01-30T16:26:07.485Z,4.90
2023-01-30T16:31:11.573Z,4.45
2023-01-30T16:36:40.680Z,4.50
2023-01-30T16:41:45.337Z,4.78
2023-01-30T16:47:19.682Z,4.88
2023-01-30T16:52:44.325Z,4.35
2023-01-30T16:57:55.046Z,3.40
2023-01-30T17:03:00.313Z,2.65
2023-01-30T17:08:02.144Z,3.28
2023-01-30T17:13:05.033Z,3.20
2023-01-30T17:18:09.596Z,3.30
2023-01-30T17:23:17.507Z,2.72
2023-01-30T17:28:21.721Z,4.28
2023-01-30T17:33:23.543Z,4.93
2023-01-30T17:38:25.327Z,4.30
2023-01-30T17:43:27.106Z,3.88
2023-01-30T17:48:28.889Z,2.95
2023-01-30T17:53:30.740Z,3.30
2023-01-30T17:58:32.522Z,4.03
2023-01-30T18:03:34.333Z,2.95
2023-01-30T18:08:36.165Z,4.05
2023-01-30T18:13:39.942Z,2.90
2023-01-30T18:18:41.836Z,2.50
2023-01-30T18:23:44.193Z,3.33
2023-01-30T18:28:46.659Z,2.88
2023-01-30T18:33:48.459Z,3.30
2023-01-30T18:38:50.466Z,3.40
2023-01-30T18:44:03.092Z,3.35
2023-01-30T18:49:05.011Z,3.60
2023-01-30T18:54:06.862Z,3.63
2023-01-30T18:59:10.287Z,3.17
2023-01-30T19:04:12.212Z,3.22
2023-01-30T19:09:16.260Z,2.80
2023-01-30T19:14:18.164Z,3.35
2023-01-30T19:19:20.075Z,2.75
2023-01-30T19:24:22.416Z,2.58
2023-01-30T19:29:24.254Z,2.85
2023-01-30T19:34:26.095Z,3.15
2023-01-30T19:39:27.870Z,4.13
2023-01-30T19:44:29.761Z,3.58
2023-01-30T19:49:33.497Z,3.20
2023-01-30T19:54:36.900Z,3.30
2023-01-30T19:59:38.902Z,3.03
2023-01-30T20:04:40.831Z,3.42
2023-01-30T20:09:42.604Z,3.25
2023-01-30T20:14:44.487Z,3.08
2023-01-30T20:19:46.334Z,2.63
2023-01-30T20:24:48.425Z,3.50
2023-01-30T20:29:50.303Z,3.20
2023-01-30T20:34:52.125Z,4.03
2023-01-30T20:39:55.365Z,3.15
2023-01-30T20:44:57.198Z,3.00
2023-01-30T20:49:58.993Z,3.65
2023-01-30T20:55:00.872Z,3.13
2023-01-30T21:00:05.521Z,3.45
2023-01-30T21:05:08.029Z,3.65
2023-01-30T21:10:10.564Z,3.78
2023-01-30T21:15:12.423Z,3.30
2023-01-30T21:20:14.292Z,3.40
2023-01-30T21:25:16.113Z,3.08
2023-01-30T21:30:18.123Z,3.67
2023-01-30T21:35:20.247Z,3.50
2023-01-30T21:40:40.688Z,2.97
2023-01-30T21:45:42.951Z,3.55
2023-01-30T21:50:45.029Z,3.20
2023-01-30T21:55:53.475Z,2.88
2023-01-30T22:00:55.327Z,3.60
2023-01-30T22:05:57.136Z,4.40
2023-01-30T22:11:07.110Z,3.25
2023-01-30T22:16:14.842Z,3.00
2023-01-30T22:21:19.500Z,3.42
2023-01-30T22:26:22.896Z,3.72
2023-01-30T22:31:26.268Z,3.22
2023-01-30T22:36:30.313Z,3.03
2023-01-30T22:41:34.900Z,3.35
2023-01-30T22:46:39.644Z,2.78
2023-01-30T22:51:43.566Z,3.38
2023-01-30T22:56:47.294Z,3.08
2023-01-30T23:01:51.036Z,3.13
2023-01-30T23:06:52.858Z,5.10
2023-01-30T23:12:15.756Z,3.00
2023-01-30T23:17:36.403Z,2.83
2023-01-30T23:22:38.947Z,2.75
2023-01-30T23:27:40.763Z,3.35
2023-01-30T23:32:42.592Z,2.55
2023-01-30T23:38:02.801Z,2.30
2023-01-30T23:43:04.652Z,3.45
2023-01-30T23:48:08.570Z,3.65
2023-01-30T23:53:10.832Z,3.40
2023-01-30T23:58:12.611Z,3.28
